Time;durP1;ratioP1;P1;durP2;ratioP2;P2;SDS_P1;SDS_P2;PMS_P1;PMS_P2;Temp;Humidity;BMP_temperature;BMP_pressure;BME280_temperature;BME280_humidity;BME280_pressure;Samples;Min_cycle;Max_cycle;Signal;HPM_P1;HPM_P2
2022/05/11 00:04:19;;;;;;;12.98;6.97;;;;;;;11.66;71.59;97979.47;10260717;28;20045;-58
2022/05/11 00:09:18;;;;;;;11.15;6.88;;;;;;;11.52;72.78;97973.44;10252699;28;20548;-58
2022/05/11 00:14:17;;;;;;;9.52;6.22;;;;;;;11.35;72.87;97976.91;10253872;28;20130;-58
2022/05/11 00:19:19;;;;;;;9.77;5.72;;;;;;;11.23;73.64;97969.13;10253630;28;20049;-58
2022/05/11 00:24:18;;;;;;;12.95;6.88;;;;;;;11.21;73.50;97971.72;10253389;28;20069;-58
2022/05/11 00:29:17;;;;;;;8.52;5.65;;;;;;;11.22;73.16;97967.38;10254044;28;20085;-58
2022/05/11 00:34:16;;;;;;;;;;;;;;;11.31;72.67;97971.72;10254795;28;20130;-58
2022/05/11 00:39:15;;;;;;;9.40;5.68;;;;;;;11.35;72.46;97971.72;10255437;28;19914;-58
2022/05/11 00:44:16;;;;;;;9.82;6.00;;;;;;;11.39;72.72;97978.66;10247562;28;20551;-58
2022/05/11 00:49:35;;;;;;;11.48;6.55;;;;;;;11.46;72.75;97961.34;10269834;28;20497;-58
2022/05/11 00:54:39;;;;;;;7.95;5.78;;;;;;;11.54;72.38;97954.38;10233128;28;20082;-58
2022/05/11 00:59:44;;;;;;;10.10;5.72;;;;;;;11.63;72.34;97959.56;10251931;28;20070;-58
2022/05/11 01:04:44;;;;;;;9.30;5.60;;;;;;;11.68;71.78;97951.75;10246390;28;20054;-58
2022/05/11 01:09:43;;;;;;;8.88;5.45;;;;;;;11.78;71.79;97963.00;10254713;28;20082;-58
2022/05/11 01:14:46;;;;;;;9.50;5.72;;;;;;;11.63;72.15;97954.34;10253405;28;20046;-58
2022/05/11 01:19:47;;;;;;;10.25;5.97;;;;;;;11.55;73.26;97969.13;10242710;28;20066;-58
2022/05/11 01:24:48;;;;;;;9.85;6.47;;;;;;;11.37;73.59;97954.41;10254756;28;20068;-58
2022/05/11 01:29:48;;;;;;;8.25;5.32;;;;;;;11.33;73.91;97960.47;10236285;28;20116;-58
2022/05/11 01:34:52;;;;;;;11.35;6.22;;;;;;;11.24;74.78;97956.16;10244372;28;20070;-58
2022/05/11 01:39:51;;;;;;;11.45;6.20;;;;;;;11.29;74.57;97961.34;10266676;28;20074;-58
2022/05/11 01:44:50;;;;;;;9.73;5.53;;;;;;;11.28;74.44;97962.22;10253300;28;20109;-58
2022/05/11 01:49:49;;;;;;;15.10;6.28;;;;;;;11.24;74.31;97950.97;10253066;28;20113;-58
2022/05/11 01:54:48;;;;;;;9.25;5.63;;;;;;;11.26;74.42;97953.53;10243986;28;20034;-58
2022/05/11 01:59:47;;;;;;;9.95;6.45;;;;;;;11.25;74.38;97960.47;10213761;28;20149;-58
2022/05/11 02:10:04;;;;;;;12.05;6.05;;;;;;;11.08;75.34;97958.72;10227551;28;20078;-58
2022/05/11 02:15:05;;;;;;;12.10;5.95;;;;;;;10.89;75.30;97952.66;10251054;28;20070;-58
2022/05/11 02:20:05;;;;;;;8.48;5.93;;;;;;;10.92;76.09;97953.56;10252962;28;20090;-58
2022/05/11 02:25:04;;;;;;;11.00;5.90;;;;;;;10.98;75.41;97955.28;10252314;28;20054;-58
2022/05/11 02:30:06;;;;;;;9.75;6.40;;;;;;;10.98;74.94;97963.91;10252204;28;20081;-58
2022/05/11 02:35:12;;;;;;;9.73;6.80;;;;;;;10.99;75.52;97965.66;10263849;28;20071;-58
2022/05/11 02:40:14;;;;;;;10.95;6.03;;;;;;;11.03;75.29;97966.53;10252308;28;20085;-58
2022/05/11 02:45:14;;;;;;;11.68;6.15;;;;;;;11.14;74.45;97976.94;10251354;28;20054;-58
2022/05/11 02:50:15;;;;;;;9.18;6.03;;;;;;;11.22;73.52;97973.47;10251176;28;20462;-58
2022/05/11 02:55:14;;;;;;;9.60;5.97;;;;;;;11.30;74.36;97964.81;10250988;28;20085;-58
2022/05/11 03:00:18;;;;;;;10.88;6.10;;;;;;;11.35;73.15;97965.66;10251237;28;20066;-58
2022/05/11 03:05:17;;;;;;;8.90;5.82;;;;;;;11.41;74.10;97979.53;10250973;28;20061;-58
2022/05/11 03:10:16;;;;;;;10.05;5.80;;;;;;;11.46;73.39;97971.72;10253426;28;20045;-58
2022/05/11 03:15:15;;;;;;;8.38;5.38;;;;;;;11.50;73.64;97978.63;10258711;28;20555;-58
2022/05/11 03:20:14;;;;;;;10.00;6.25;;;;;;;11.48;73.52;97977.78;10259840;28;20061;-58
2022/05/11 03:25:13;;;;;;;8.85;5.60;;;;;;;11.36;73.47;97985.56;10252998;28;20066;-58
2022/05/11 03:30:13;;;;;;;9.38;6.30;;;;;;;11.34;73.09;97980.41;10258986;28;20050;-58
2022/05/11 03:35:12;;;;;;;12.00;6.05;;;;;;;11.37;73.53;97982.97;10255393;28;20117;-58
2022/05/11 03:40:12;;;;;;;12.50;6.68;;;;;;;11.42;73.99;97978.66;10258963;28;20038;-58
2022/05/11 03:45:23;;;;;;;18.90;8.02;;;;;;;11.51;74.41;97980.38;10258150;28;20066;-58
2022/05/11 03:50:23;;;;;;;16.33;7.97;;;;;;;11.55;74.10;97987.31;10257182;28;20077;-58
2022/05/11 03:55:23;;;;;;;14.25;8.07;;;;;;;11.60;73.86;98000.31;10257138;28;20077;-58
2022/05/11 04:00:24;;;;;;;17.08;10.82;;;;;;;11.59;73.84;98001.16;10257081;28;20080;-58
2022/05/11 04:05:24;;;;;;;21.25;11.93;;;;;;;11.66;74.02;98027.13;10258102;28;20486;-58
2022/05/11 04:10:23;;;;;;;17.13;10.65;;;;;;;11.77;74.36;98029.72;10256810;28;20080;-58
2022/05/11 04:15:22;;;;;;;15.88;8.80;;;;;;;11.96;73.91;98034.91;10257215;28;20109;-58
2022/05/11 04:20:21;;;;;;;17.13;9.20;;;;;;;12.15;73.74;98035.72;10257641;28;20548;-57
2022/05/11 04:25:21;;;;;;;26.50;9.73;;;;;;;12.38;73.78;98040.88;10257286;28;20062;-58
2022/05/11 04:30:26;;;;;;;17.70;8.50;;;;;;;12.55;73.10;98026.06;10262440;28;20073;-58
2022/05/11 04:35:30;;;;;;;15.35;8.95;;;;;;;12.69;72.34;98033.81;10257087;28;20061;-58
2022/05/11 04:40:30;;;;;;;13.52;8.80;;;;;;;12.80;71.86;98041.56;10257023;28;20085;-58
2022/05/11 04:45:29;;;;;;;14.43;9.07;;;;;;;12.88;71.14;98044.97;10255121;28;20080;-58
2022/05/11 04:50:29;;;;;;;14.98;9.18;;;;;;;12.96;70.89;98035.41;10264323;28;20056;-58
2022/05/11 04:55:28;;;;;;;17.52;10.75;;;;;;;13.06;71.02;98044.88;10296921;28;20073;-58
2022/05/11 05:00:27;;;;;;;15.68;9.18;;;;;;;13.00;70.91;98039.72;10276837;28;20050;-58
2022/05/11 05:05:26;;;;;;;16.92;9.57;;;;;;;12.95;71.05;98046.69;10285892;28;20065;-58
2022/05/11 05:10:25;;;;;;;18.13;10.70;;;;;;;12.69;72.39;98049.44;10269382;28;20081;-58
2022/05/11 05:15:24;;;;;;;16.92;10.55;;;;;;;12.69;73.53;98065.06;10271846;28;20121;-58
2022/05/11 05:20:23;;;;;;;18.45;10.40;;;;;;;12.83;73.84;98064.97;10295343;28;20100;-57
2022/05/11 05:25:23;;;;;;;19.35;10.63;;;;;;;12.94;73.76;98057.97;10262087;28;20105;-58
2022/05/11 05:35:39;;;;;;;18.65;10.23;;;;;;;13.34;72.55;98083.78;10240267;28;20117;-58
2022/05/11 05:40:38;;;;;;;15.27;9.23;;;;;;;13.41;71.24;98090.69;10271977;28;20494;-58
2022/05/11 05:45:37;;;;;;;15.70;9.18;;;;;;;13.59;70.68;98091.50;10255789;28;20560;-58
2022/05/11 05:50:36;;;;;;;29.13;16.00;;;;;;;13.71;69.22;98087.03;10262321;28;20046;-58
2022/05/11 05:55:35;;;;;;;15.07;8.40;;;;;;;13.87;67.42;98099.94;10252630;28;20030;-59
2022/05/11 06:00:34;;;;;;;14.80;7.63;;;;;;;13.94;66.17;98093.78;10252777;28;20069;-59
2022/05/11 06:05:33;;;;;;;16.67;9.52;;;;;;;14.10;65.69;98105.81;10247182;28;20121;-59
2022/05/11 06:10:34;;;;;;;27.67;18.25;;;;;;;14.20;65.48;98110.06;10215056;28;20043;-58
2022/05/11 06:15:33;;;;;;;13.60;8.27;;;;;;;14.36;64.89;98105.56;10224938;28;20077;-58
2022/05/11 06:20:32;;;;;;;10.45;6.53;;;;;;;14.55;62.12;98107.97;10213183;28;20484;-58
2022/05/11 06:25:32;;;;;;;10.60;6.03;;;;;;;14.62;61.67;98097.44;10240692;28;20545;-59
2022/05/11 06:30:31;;;;;;;10.00;5.82;;;;;;;14.95;61.51;98116.22;10275051;28;20477;-58
2022/05/11 06:35:30;;;;;;;11.85;6.10;;;;;;;15.14;60.27;98100.28;10289616;28;20409;-59
2022/05/11 06:40:29;;;;;;;10.85;5.38;;;;;;;15.44;60.54;98109.47;10263809;28;20144;-59
2022/05/11 06:45:28;;;;;;;;;;;;;;;15.62;59.81;98122.25;10243106;28;20080;-59
2022/05/11 06:50:27;;;;;;;8.57;5.65;;;;;;;15.79;59.59;98115.94;10254995;28;19909;-59
2022/05/11 07:00:44;;;;;;;8.45;5.55;;;;;;;16.10;59.78;98113.66;10279175;28;20494;-59
2022/05/11 07:05:43;;;;;;;;;;;;;;;16.34;59.17;98107.09;10221817;28;20458;-59
2022/05/11 07:10:43;;;;;;;10.68;5.47;;;;;;;16.57;59.84;98096.19;10213195;28;19960;-59
2022/05/11 07:15:42;;;;;;;11.05;5.90;;;;;;;16.75;57.27;98089.72;10213543;28;20457;-59
2022/05/11 07:20:41;;;;;;;;;;;;;;;17.04;57.05;98088.28;10245010;28;20123;-59
2022/05/11 07:25:40;;;;;;;15.57;11.65;;;;;;;17.20;55.24;98083.56;10243008;28;20387;-59
2022/05/11 07:30:39;;;;;;;;;;;;;;;17.37;53.67;98073.53;10258589;28;20082;-59
2022/05/11 07:35:38;;;;;;;9.90;5.32;;;;;;;17.43;53.40;98075.19;10250253;28;19971;-59
2022/05/11 07:40:38;;;;;;;8.27;4.57;;;;;;;17.47;52.43;98068.94;10263521;28;20070;-58
2022/05/11 07:45:38;;;;;;;6.63;4.28;;;;;;;17.59;51.20;98071.28;10258206;28;20054;-59
2022/05/11 07:50:38;;;;;;;8.43;4.63;;;;;;;17.77;49.16;98067.38;10248152;28;20904;-59
2022/05/11 07:55:37;;;;;;;8.43;4.90;;;;;;;18.01;49.08;98063.28;10282802;28;20488;-59
2022/05/11 08:00:37;;;;;;;8.18;5.25;;;;;;;18.30;49.81;98054.59;10289614;28;20532;-58
2022/05/11 08:05:36;;;;;;;8.43;4.47;;;;;;;18.34;48.32;98060.66;10258965;28;20078;-58
2022/05/11 08:10:41;;;;;;;7.75;4.30;;;;;;;18.52;49.03;98057.47;10289010;28;20045;-58
2022/05/11 08:15:46;;;;;;;11.98;8.95;;;;;;;18.63;50.73;98062.44;10288863;28;20148;-59
2022/05/11 08:20:46;;;;;;;8.00;4.95;;;;;;;18.78;50.47;98046.28;10260055;28;20544;-59
2022/05/11 08:25:49;;;;;;;8.52;4.90;;;;;;;18.85;51.03;98046.06;10255350;28;20530;-58
2022/05/11 08:36:18;;;;;;;7.95;5.40;;;;;;;19.05;49.48;98027.09;10259736;28;20150;-59
2022/05/11 08:41:20;;;;;;;6.47;4.70;;;;;;;19.41;48.44;98057.47;10259079;28;20062;-59
2022/05/11 08:46:51;;;;;;;7.70;4.65;;;;;;;19.76;48.19;98052.88;10271443;28;20073;-59
2022/05/11 08:52:04;;;;;;;7.50;4.97;;;;;;;20.13;49.03;98053.41;10261350;28;20057;-59
2022/05/11 08:57:12;;;;;;;6.10;4.30;;;;;;;20.66;46.96;98053.31;10287356;28;20065;-59
2022/05/11 09:02:21;;;;;;;6.80;4.80;;;;;;;20.46;46.03;98054.88;10288456;28;20073;-57
2022/05/11 09:07:20;;;;;;;6.28;5.05;;;;;;;20.70;46.89;98052.25;10285648;28;20073;-57
2022/05/11 09:12:20;;;;;;;6.90;4.90;;;;;;;20.64;46.61;98048.06;10263724;28;20061;-57
2022/05/11 09:17:29;;;;;;;6.55;4.80;;;;;;;20.58;46.82;98050.91;10289672;28;20497;-57
2022/05/11 09:22:30;;;;;;;7.95;4.90;;;;;;;20.91;46.85;98040.03;10214545;28;20085;-57
2022/05/11 09:27:35;;;;;;;7.07;4.72;;;;;;;21.17;43.84;98024.97;10230715;28;20077;-57
2022/05/11 09:32:37;;;;;;;7.35;4.82;;;;;;;21.25;44.45;98044.91;10253419;28;20080;-57
2022/05/11 09:37:37;;;;;;;10.60;8.10;;;;;;;20.71;44.24;98031.09;10267691;28;20522;-57
2022/05/11 09:42:48;;;;;;;5.90;4.40;;;;;;;20.85;44.33;98042.91;10266626;28;20073;-57
2022/05/11 09:48:02;;;;;;;6.97;4.13;;;;;;;21.03;43.58;98031.66;10254973;28;20074;-58
2022/05/11 09:53:35;;;;;;;6.50;4.55;;;;;;;20.98;43.04;98030.97;10268076;28;20539;-57
2022/05/11 09:58:34;;;;;;;8.63;4.25;;;;;;;20.83;42.20;98029.78;10268008;28;20470;-57
2022/05/11 10:03:35;;;;;;;5.28;4.25;;;;;;;20.56;43.84;98029.03;10225826;28;20129;-57
2022/05/11 10:08:38;;;;;;;9.95;5.15;;;;;;;20.52;44.21;98027.44;10251521;28;20599;-58
2022/05/11 10:13:40;;;;;;;8.40;4.40;;;;;;;20.62;43.94;98039.34;10252810;28;20090;-57
2022/05/11 10:24:11;;;;;;;16.40;5.00;;;;;;;21.34;42.86;98025.19;10252325;28;20062;-59
2022/05/11 10:29:26;;;;;;;7.15;4.05;;;;;;;22.14;41.89;98024.53;10249654;28;20078;-59
2022/05/11 10:34:45;;;;;;;10.15;5.03;;;;;;;22.80;43.08;98014.50;10250905;28;20101;-59
2022/05/11 10:40:02;;;;;;;6.55;4.20;;;;;;;22.87;40.23;98019.53;10252375;28;20065;-59
2022/05/11 10:45:09;;;;;;;10.30;4.70;;;;;;;22.27;41.21;98022.19;10252587;28;20455;-57
2022/05/11 10:50:40;;;;;;;5.03;4.22;;;;;;;22.07;42.11;98031.03;10252442;28;20074;-59
2022/05/11 10:55:56;;;;;;;7.60;4.97;;;;;;;22.63;43.03;98005.63;10250461;28;20066;-58
2022/05/11 11:01:10;;;;;;;4.78;3.90;;;;;;;23.34;41.87;98008.47;10251952;28;20080;-58
2022/05/11 11:11:42;;;;;;;6.25;4.05;;;;;;;22.98;39.17;98002.22;10251620;28;20070;-58
2022/05/11 11:16:42;;;;;;;5.60;3.90;;;;;;;22.70;39.17;97997.34;10248564;28;20877;-58
2022/05/11 11:21:42;;;;;;;7.20;4.20;;;;;;;22.58;39.82;97993.47;10251314;28;20221;-58
2022/05/11 11:26:46;;;;;;;5.63;3.78;;;;;;;23.08;41.10;97992.06;10249021;28;20070;-59
2022/05/11 11:32:00;;;;;;;6.30;3.63;;;;;;;23.77;39.98;97998.41;10254231;28;20089;-59
2022/05/11 11:37:25;;;;;;;7.88;4.20;;;;;;;24.10;37.11;97987.00;10219234;28;20085;-58
2022/05/11 11:42:39;;;;;;;3.70;3.30;;;;;;;23.96;36.55;97985.94;10218354;28;20062;-58
2022/05/11 11:47:42;;;;;;;6.38;3.90;;;;;;;23.46;37.14;97991.13;10265419;28;20528;-58
2022/05/11 11:52:45;;;;;;;6.53;3.65;;;;;;;23.36;36.50;97993.38;10279858;28;20080;-58
2022/05/11 11:57:47;;;;;;;4.72;3.65;;;;;;;22.80;37.48;97976.63;10251802;28;20070;-58
2022/05/11 12:02:47;;;;;;;5.85;3.70;;;;;;;22.85;37.35;97965.81;10257505;28;20509;-58
2022/05/11 12:18:41;;;;;;;3.55;3.15;;;;;;;22.62;37.60;97954.50;10253907;28;20066;-58
2022/05/11 12:23:48;;;;;;;6.78;3.60;;;;;;;23.11;38.26;97941.59;10256332;28;20470;-58
2022/05/11 12:28:47;;;;;;;7.03;4.35;;;;;;;23.53;37.76;97948.38;10260807;28;20081;-58
2022/05/11 12:33:54;;;;;;;4.38;3.40;;;;;;;23.73;36.22;97935.94;10254142;28;20038;-58
2022/05/11 12:38:53;;;;;;;6.22;3.25;;;;;;;23.91;35.17;97939.41;10256082;28;20505;-58
2022/05/11 12:44:14;;;;;;;5.15;3.65;;;;;;;23.60;34.34;97933.88;10254876;28;20065;-58
2022/05/11 12:49:15;;;;;;;5.05;3.00;;;;;;;23.67;34.38;97925.63;10237824;28;20068;-58
2022/05/11 12:54:20;;;;;;;3.63;2.88;;;;;;;23.69;33.34;97924.63;10255744;28;20109;-58
2022/05/11 12:59:23;;;;;;;4.13;2.90;;;;;;;23.90;33.08;97922.66;10255210;28;20061;-58
2022/05/11 13:04:25;;;;;;;4.28;2.72;;;;;;;23.46;33.34;97924.91;10249950;28;20062;-58
2022/05/11 13:09:45;;;;;;;4.15;2.88;;;;;;;23.31;33.45;97919.44;10248501;28;20181;-58
2022/05/11 13:14:52;;;;;;;5.72;2.65;;;;;;;22.96;33.72;97902.66;10255159;28;20092;-57
2022/05/11 13:19:58;;;;;;;3.13;2.58;;;;;;;23.17;33.13;97912.19;10254260;28;20069;-59
2022/05/11 13:25:04;;;;;;;3.08;2.63;;;;;;;23.10;33.08;97908.13;10254818;28;20066;-59
2022/05/11 13:30:11;;;;;;;4.10;2.90;;;;;;;23.31;32.66;97911.50;10252102;28;20527;-57
2022/05/11 13:35:30;;;;;;;3.57;2.23;;;;;;;23.75;31.05;97902.25;10253642;28;21153;-57
2022/05/11 13:40:37;;;;;;;;;;;;;;;24.10;31.45;97896.88;10250239;28;20072;-57
2022/05/11 13:45:36;;;;;;;4.78;2.63;;;;;;;24.12;32.34;97895.00;10244960;28;20433;-57
2022/05/11 13:50:44;;;;;;;4.68;2.53;;;;;;;23.80;32.31;97901.06;10249903;28;20038;-57
2022/05/11 13:55:57;;;;;;;3.53;2.72;;;;;;;23.57;33.08;97904.06;10252014;28;20062;-58
2022/05/11 14:01:00;;;;;;;29.92;12.23;;;;;;;23.46;33.88;97890.47;10250964;28;20472;-57
2022/05/11 14:06:02;;;;;;;5.03;2.55;;;;;;;23.49;31.88;97888.56;10251079;28;20062;-57
2022/05/11 14:11:01;;;;;;;4.18;2.60;;;;;;;23.36;31.29;97885.63;10253177;28;20065;-57
2022/05/11 14:16:01;;;;;;;7.22;4.20;;;;;;;23.43;32.04;97895.00;10259479;28;20042;-57
2022/05/11 14:21:00;;;;;;;10.70;5.90;;;;;;;23.54;32.05;97889.19;10252148;28;20473;-57
2022/05/11 14:25:59;;;;;;;18.52;13.23;;;;;;;23.52;31.26;97891.06;10251792;28;20065;-57
2022/05/11 14:30:59;;;;;;;7.20;3.80;;;;;;;23.86;31.43;97883.97;10251617;28;20078;-58
2022/05/11 14:35:58;;;;;;;2.95;2.60;;;;;;;23.76;31.58;97885.41;10252130;28;20462;-57
2022/05/11 14:40:57;;;;;;;24.88;18.00;;;;;;;23.39;32.16;97889.91;10252133;28;20390;-58
2022/05/11 14:46:00;;;;;;;3.85;2.42;;;;;;;23.25;32.01;97882.69;10254017;28;20089;-59
2022/05/11 14:50:59;;;;;;;8.07;3.40;;;;;;;23.40;32.23;97881.06;10252255;28;20057;-58
2022/05/11 14:55:58;;;;;;;3.85;3.10;;;;;;;23.05;33.40;97881.03;10251561;28;20062;-57
2022/05/11 15:06:19;;;;;;;8.30;4.60;;;;;;;22.86;33.93;97886.38;10241991;28;20066;-57
2022/05/11 15:16:39;;;;;;;7.22;3.90;;;;;;;22.88;33.56;97878.34;10250154;28;20062;-57
2022/05/11 15:21:38;;;;;;;5.90;3.70;;;;;;;22.68;34.41;97880.16;10250699;28;20074;-57
2022/05/11 15:26:36;;;;;;;3.63;2.78;;;;;;;22.75;34.01;97865.72;10251029;28;20101;-57
2022/05/11 15:31:35;;;;;;;4.57;3.00;;;;;;;22.82;33.90;97881.31;10250632;28;20047;-57
2022/05/11 15:36:34;;;;;;;3.95;2.78;;;;;;;22.90;33.21;97865.91;10250095;28;20125;-57
2022/05/11 15:41:34;;;;;;;4.68;2.90;;;;;;;22.99;33.33;97865.44;10247381;28;20045;-57
2022/05/11 15:46:33;;;;;;;5.22;3.08;;;;;;;22.99;33.09;97873.38;10251412;28;20066;-57
2022/05/11 15:51:33;;;;;;;4.35;3.00;;;;;;;22.91;32.87;97868.47;10236462;28;20070;-57
2022/05/11 15:56:32;;;;;;;6.30;3.58;;;;;;;22.84;33.22;97871.50;10260436;28;20062;-57
2022/05/11 16:01:31;;;;;;;4.40;2.83;;;;;;;22.95;33.11;97874.47;10246335;28;20513;-58
2022/05/11 16:06:31;;;;;;;5.82;2.50;;;;;;;23.03;32.40;97874.97;10247536;28;20054;-58
2022/05/11 16:11:33;;;;;;;3.80;2.72;;;;;;;22.89;33.03;97877.44;10249287;28;20073;-58
2022/05/11 16:16:33;;;;;;;4.35;2.70;;;;;;;22.78;32.61;97870.84;10250083;28;20150;-58
2022/05/11 16:21:32;;;;;;;4.97;2.90;;;;;;;22.67;32.70;97875.81;10257243;28;20061;-58
2022/05/11 16:26:31;;;;;;;7.32;3.75;;;;;;;22.51;34.21;97864.25;10256371;28;20096;-58
2022/05/11 16:31:30;;;;;;;6.78;4.00;;;;;;;22.34;34.54;97879.13;10257284;28;20589;-58
2022/05/11 16:36:29;;;;;;;10.25;5.00;;;;;;;22.36;34.81;97879.88;10252897;28;20497;-58
2022/05/11 16:41:28;;;;;;;11.30;6.00;;;;;;;22.42;35.01;97885.81;10260996;28;20026;-58
2022/05/11 16:46:27;;;;;;;9.57;5.38;;;;;;;22.31;34.98;97884.53;10250982;28;20050;-58
2022/05/11 16:51:26;;;;;;;11.40;5.22;;;;;;;22.02;35.44;97885.88;10253604;28;20026;-58
2022/05/11 16:56:25;;;;;;;7.10;4.20;;;;;;;21.88;35.85;97890.88;10251637;28;20125;-58
2022/05/11 17:01:27;;;;;;;6.53;3.97;;;;;;;21.66;36.39;97893.59;10253637;28;20528;-58
2022/05/11 17:06:26;;;;;;;6.50;4.45;;;;;;;21.37;36.78;97882.50;10251758;28;20113;-58
2022/05/11 17:11:26;;;;;;;7.82;5.03;;;;;;;21.36;37.14;97909.84;10249071;28;20617;-58
2022/05/11 17:16:25;;;;;;;8.10;4.97;;;;;;;21.30;37.76;97910.09;10244139;28;20121;-58
2022/05/11 17:21:25;;;;;;;9.95;5.15;;;;;;;21.17;38.18;97907.06;10247737;28;20048;-58
2022/05/11 17:26:25;;;;;;;7.35;4.72;;;;;;;20.99;38.82;97916.59;10252762;28;20069;-58
2022/05/11 17:31:24;;;;;;;16.33;6.75;;;;;;;20.80;39.68;97923.56;10249799;28;20089;-58
2022/05/11 17:36:23;;;;;;;25.17;21.83;;;;;;;20.47;41.11;97926.59;10252935;28;20062;-57
2022/05/11 17:41:22;;;;;;;19.77;12.02;;;;;;;20.20;42.07;97923.16;10253632;28;20065;-57
2022/05/11 17:46:21;;;;;;;12.20;7.65;;;;;;;19.97;43.22;97934.53;10248353;28;20049;-58
2022/05/11 17:51:21;;;;;;;12.68;7.70;;;;;;;19.66;44.55;97951.41;10279729;28;20062;-58
2022/05/11 17:56:20;;;;;;;11.45;6.25;;;;;;;19.33;45.00;97956.88;10269464;28;20066;-58
2022/05/11 18:01:19;;;;;;;8.85;5.18;;;;;;;19.01;45.68;97964.03;10252263;28;20034;-58
2022/05/11 18:06:18;;;;;;;7.03;4.68;;;;;;;18.63;46.02;97956.44;10253269;28;20062;-58
2022/05/11 18:11:17;;;;;;;8.40;4.40;;;;;;;18.44;46.70;97975.41;10262597;28;20073;-59
2022/05/11 18:16:16;;;;;;;6.65;4.22;;;;;;;18.11;47.29;97983.31;10274647;28;20117;-58
2022/05/11 18:21:20;;;;;;;6.47;4.00;;;;;;;17.74;47.97;97986.03;10273579;28;20065;-58
2022/05/11 18:26:19;;;;;;;6.32;3.90;;;;;;;17.40;48.42;97980.78;10291888;28;20477;-58
2022/05/11 18:31:18;;;;;;;9.55;4.28;;;;;;;17.24;49.27;97996.03;10285711;28;20073;-58
2022/05/11 18:36:17;;;;;;;5.05;3.90;;;;;;;16.99;49.92;98006.25;10251099;28;20073;-58
2022/05/11 18:41:16;;;;;;;;;;;;;;;16.73;50.37;98012.91;10246288;28;20129;-58
2022/05/11 18:46:15;;;;;;;6.40;3.90;;;;;;;16.50;51.13;98019.47;10248206;28;19964;-58
2022/05/11 18:51:14;;;;;;;7.72;4.20;;;;;;;16.33;51.46;98023.34;10244859;28;20112;-58
2022/05/11 18:56:13;;;;;;;6.82;4.45;;;;;;;16.13;51.78;98028.94;10244778;28;20142;-58
2022/05/11 19:01:13;;;;;;;;;;;;;;;15.97;51.95;98034.47;10248505;28;20054;-58
2022/05/11 19:06:12;;;;;;;4.87;3.77;;;;;;;15.84;52.32;98049.53;10249816;28;19953;-58
2022/05/11 19:11:11;;;;;;;;;;;;;;;15.70;52.40;98046.25;10252549;28;20069;-58
2022/05/11 19:16:10;;;;;;;7.07;4.60;;;;;;;15.45;53.20;98044.03;10250577;28;19914;-58
2022/05/11 19:21:08;;;;;;;;;;;;;;;15.39;53.91;98054.59;10254524;28;20062;-58
2022/05/11 19:26:08;;;;;;;5.63;3.90;;;;;;;15.26;53.68;98053.06;10289767;28;19975;-58
2022/05/11 19:31:10;;;;;;;8.02;4.55;;;;;;;15.21;53.50;98050.50;10282647;28;20073;-58
2022/05/11 19:36:12;;;;;;;7.95;3.97;;;;;;;15.10;54.28;98062.88;10250175;28;20082;-58
2022/05/11 19:41:14;;;;;;;7.00;4.88;;;;;;;14.97;54.67;98064.81;10251015;28;20065;-58
2022/05/11 19:46:13;;;;;;;10.15;6.18;;;;;;;14.81;55.19;98064.13;10248832;28;20066;-58
2022/05/11 19:51:14;;;;;;;6.30;4.50;;;;;;;14.67;55.37;98068.63;10254345;28;20050;-58
2022/05/11 19:56:14;;;;;;;11.20;7.03;;;;;;;14.54;55.68;98073.13;10279593;28;20458;-58
2022/05/11 20:01:15;;;;;;;15.38;10.73;;;;;;;14.40;57.96;98073.31;10257525;28;20049;-57
2022/05/11 20:06:18;;;;;;;10.02;5.82;;;;;;;14.31;57.84;98083.88;10257863;28;20054;-58
2022/05/11 20:11:18;;;;;;;9.00;5.43;;;;;;;14.22;57.89;98088.28;10255378;28;20089;-57
2022/05/11 20:16:18;;;;;;;7.68;4.95;;;;;;;14.18;58.44;98079.63;10257461;28;20509;-58
2022/05/11 20:21:17;;;;;;;12.02;5.95;;;;;;;14.04;58.61;98091.97;10262297;28;20061;-58
2022/05/11 20:26:17;;;;;;;11.05;6.22;;;;;;;13.94;58.92;98086.81;10284209;28;20072;-58
2022/05/11 20:36:34;;;;;;;11.07;5.80;;;;;;;13.74;59.58;98099.16;10256812;28;20478;-58
2022/05/11 20:41:33;;;;;;;11.60;7.25;;;;;;;13.66;60.24;98101.00;10256397;28;20023;-58
2022/05/11 20:46:32;;;;;;;13.27;6.22;;;;;;;13.54;63.39;98109.78;10253915;28;20026;-57
2022/05/11 20:51:32;;;;;;;12.85;7.70;;;;;;;13.45;64.46;98112.41;10248407;28;20069;-58
2022/05/11 20:56:31;;;;;;;10.18;7.20;;;;;;;13.29;65.64;98119.47;10291198;28;20057;-58
2022/05/11 21:01:30;;;;;;;12.48;6.43;;;;;;;13.13;66.60;98126.50;10295917;28;20032;-58
2022/05/11 21:06:30;;;;;;;9.93;6.65;;;;;;;13.10;66.06;98123.91;10295236;28;20116;-58
2022/05/11 21:11:29;;;;;;;13.30;6.85;;;;;;;13.05;65.83;98131.75;10271620;28;20074;-58
2022/05/11 21:16:28;;;;;;;12.80;7.60;;;;;;;12.82;66.82;98112.75;10253098;28;20113;-58
2022/05/11 21:21:27;;;;;;;13.02;7.80;;;;;;;12.86;66.97;98122.25;10248978;28;20081;-58
2022/05/11 21:26:31;;;;;;;12.57;8.75;;;;;;;12.78;67.86;98131.84;10272594;28;20014;-57
2022/05/11 21:31:30;;;;;;;14.43;8.15;;;;;;;12.64;67.89;98135.38;10294063;28;20081;-58
2022/05/11 21:36:29;;;;;;;;;;;;;;;12.52;68.29;98145.81;10295049;28;20524;-58
2022/05/11 21:41:28;;;;;;;13.70;8.07;;;;;;;12.44;69.15;98145.00;10294213;28;20439;-57
2022/05/11 21:46:30;;;;;;;20.92;8.60;;;;;;;12.24;69.73;98134.56;10274254;28;20414;-58
2022/05/11 21:51:29;;;;;;;14.00;8.45;;;;;;;12.24;69.76;98143.22;10253157;28;20084;-58
2022/05/11 21:56:28;;;;;;;15.80;9.60;;;;;;;12.24;69.78;98144.97;10284264;28;20065;-58
2022/05/11 22:01:34;;;;;;;12.38;8.50;;;;;;;12.19;69.75;98146.72;10281650;28;20113;-58
2022/05/11 22:06:33;;;;;;;10.70;7.30;;;;;;;12.15;69.78;98145.84;10269720;28;20045;-57
2022/05/11 22:11:33;;;;;;;10.57;6.28;;;;;;;11.96;70.04;98128.53;10276807;28;20843;-58
2022/05/11 22:16:33;;;;;;;10.50;6.65;;;;;;;11.96;70.54;98141.53;10265117;28;20473;-58
2022/05/11 22:21:33;;;;;;;9.93;6.97;;;;;;;11.76;70.06;98126.81;10265515;28;20486;-57
2022/05/11 22:26:33;;;;;;;12.77;7.80;;;;;;;11.70;71.52;98137.19;10252698;28;20543;-58
2022/05/11 22:31:33;;;;;;;;;;;;;;;11.64;72.23;98142.38;10268019;28;20069;-58
2022/05/11 22:36:32;;;;;;;;;;;;;;;11.62;72.98;98144.13;10273535;28;19975;-57
2022/05/11 22:41:30;;;;;;;16.95;7.25;;;;;;;11.54;73.41;98144.09;10268065;28;20310;-59
2022/05/11 22:46:29;;;;;;;20.67;7.97;;;;;;;11.48;73.84;98146.72;10259623;28;20091;-57
2022/05/11 22:51:28;;;;;;;15.68;7.88;;;;;;;11.48;73.88;98146.72;10275717;28;20069;-57
2022/05/11 22:56:29;;;;;;;14.30;9.35;;;;;;;11.34;74.17;98149.28;10254245;28;20604;-58
2022/05/11 23:01:28;;;;;;;14.77;9.73;;;;;;;11.29;74.54;98148.41;10274715;28;20101;-58
2022/05/11 23:06:27;;;;;;;17.48;10.20;;;;;;;11.21;74.53;98148.38;10272387;28;20032;-58
2022/05/11 23:11:26;;;;;;;12.52;8.35;;;;;;;11.18;74.66;98131.94;10266903;28;20066;-58
2022/05/11 23:16:25;;;;;;;12.30;8.13;;;;;;;11.07;74.67;98137.06;10284486;28;20030;-58
2022/05/11 23:21:24;;;;;;;13.40;9.15;;;;;;;10.90;75.46;98126.63;10275277;28;20409;-57
2022/05/11 23:26:23;;;;;;;12.82;9.25;;;;;;;10.80;75.81;98130.03;10262654;28;20034;-57
2022/05/11 23:31:22;;;;;;;;;;;;;;;10.68;76.68;98129.97;10274111;28;20086;-57
2022/05/11 23:36:21;;;;;;;15.05;11.27;;;;;;;10.48;77.13;98106.53;10273152;28;19952;-60
2022/05/11 23:41:20;;;;;;;19.00;12.18;;;;;;;10.50;77.11;98121.25;10274767;28;20558;-57
2022/05/11 23:46:20;;;;;;;17.77;12.52;;;;;;;10.40;76.82;98117.72;10277106;28;20555;-58
2022/05/11 23:51:19;;;;;;;23.17;14.18;;;;;;;10.37;77.45;98122.88;10282364;28;20061;-57
2022/05/11 23:56:18;;;;;;;17.63;12.85;;;;;;;10.31;77.04;98119.41;10269815;28;20034;-57
